Time;durP1;ratioP1;P1;durP2;ratioP2;P2;SDS_P1;SDS_P2;PMS_P1;PMS_P2;Temp;Humidity;BMP_temperature;BMP_pressure;BME280_temperature;BME280_humidity;BME280_pressure;Samples;Min_cycle;Max_cycle;Signal;HPM_P1;HPM_P2
2023/04/16 00:01:19;;;;;;;0.00;0.00;;;;;;;8.29;74.18;101281.75;6214804;22;20012;-76
2023/04/16 00:03:45;;;;;;;0.00;0.00;;;;;;;8.31;74.61;101285.06;6245092;22;20011;-78
2023/04/16 00:06:11;;;;;;;0.00;0.00;;;;;;;8.35;74.43;101286.28;6238067;22;20350;-75
2023/04/16 00:08:37;;;;;;;0.00;0.00;;;;;;;8.35;74.42;101286.28;6236670;23;20016;-77
2023/04/16 00:11:04;;;;;;;0.00;0.00;;;;;;;8.37;74.23;101282.25;6240984;23;20020;-76
2023/04/16 00:13:30;;;;;;;0.00;0.00;;;;;;;8.48;74.30;101296.19;6235702;23;20054;-76
2023/04/16 00:15:57;;;;;;;0.00;0.00;;;;;;;8.43;74.35;101277.78;6240809;22;20008;-77
2023/04/16 00:18:23;;;;;;;0.00;0.00;;;;;;;8.44;74.21;101274.03;6238879;23;20315;-76
2023/04/16 00:20:49;;;;;;;0.00;0.00;;;;;;;8.46;74.49;101277.34;6238590;23;20004;-76
2023/04/16 00:23:15;;;;;;;0.00;0.00;;;;;;;8.46;74.29;101271.91;6239744;23;20323;-76
2023/04/16 00:25:51;;;;;;;0.00;0.00;;;;;;;8.65;74.57;101299.94;6235985;23;20043;-76
2023/04/16 00:28:26;;;;;;;0.00;0.00;;;;;;;8.37;74.02;101267.81;6215561;23;20058;-76
2023/04/16 00:30:51;;;;;;;0.00;0.00;;;;;;;8.50;74.08;101289.47;6235871;23;20031;-76
2023/04/16 00:33:20;;;;;;;0.00;0.00;;;;;;;8.52;74.54;101303.69;6239638;23;20035;-76
2023/04/16 00:35:46;;;;;;;0.00;0.00;;;;;;;8.47;75.05;101295.38;6263865;22;20008;-80
2023/04/16 00:38:13;;;;;;;0.00;0.00;;;;;;;8.44;75.36;101294.97;6242314;23;20035;-78
2023/04/16 00:40:38;;;;;;;0.00;0.00;;;;;;;8.48;75.32;101297.03;6266899;22;20031;-78
2023/04/16 00:43:04;;;;;;;0.00;0.00;;;;;;;8.34;75.05;101280.00;6241484;23;19996;-75
2023/04/16 00:45:31;;;;;;;0.00;0.00;;;;;;;8.35;74.95;101278.94;6242263;23;19996;-75
2023/04/16 00:47:58;;;;;;;0.00;0.00;;;;;;;8.50;75.05;101300.38;6233871;23;20088;-76
2023/04/16 00:50:23;;;;;;;0.00;0.00;;;;;;;8.44;75.13;101290.38;6240749;23;20004;-76
2023/04/16 00:52:49;;;;;;;0.00;0.00;;;;;;;8.36;75.41;101288.75;6233991;23;20094;-76
2023/04/16 00:55:24;;;;;;;0.00;0.00;;;;;;;8.33;75.61;101282.94;6265512;22;20083;-75
2023/04/16 00:57:50;;;;;;;0.00;0.00;;;;;;;8.42;75.28;101295.19;6259024;22;20008;-77
2023/04/16 01:00:16;;;;;;;0.00;0.00;;;;;;;8.35;75.63;101291.72;6264744;22;20031;-76
2023/04/16 01:02:49;;;;;;;0.00;0.00;;;;;;;8.44;75.75;101301.28;6235209;23;20003;-76
2023/04/16 01:05:14;;;;;;;0.00;0.00;;;;;;;8.39;75.43;101291.03;6238880;22;20017;-75
2023/04/16 01:07:40;;;;;;;0.00;0.00;;;;;;;8.18;75.55;101258.84;6265113;22;20034;-75
2023/04/16 01:10:06;;;;;;;0.00;0.00;;;;;;;8.26;75.41;101272.13;6233368;23;20008;-76
2023/04/16 01:12:31;;;;;;;0.00;0.00;;;;;;;8.35;75.67;101280.81;6265386;22;20011;-74
2023/04/16 01:14:59;;;;;;;0.00;0.00;;;;;;;8.34;75.43;101284.63;6238552;23;20419;-76
2023/04/16 01:17:29;;;;;;;0.00;0.00;;;;;;;8.29;75.30;101270.84;6239618;22;20006;-75
2023/04/16 01:19:58;;;;;;;0.00;0.00;;;;;;;8.32;75.03;101278.56;6237764;23;20153;-74
2023/04/16 01:22:24;;;;;;;0.00;0.00;;;;;;;8.36;75.57;101298.84;6237101;22;20004;-76
2023/04/16 01:24:52;;;;;;;0.00;0.00;;;;;;;8.21;75.57;101275.53;6241342;23;20057;-75
2023/04/16 01:27:19;;;;;;;0.00;0.00;;;;;;;8.10;75.51;101257.25;6234510;23;20030;-74
2023/04/16 01:29:45;;;;;;;0.00;0.00;;;;;;;8.27;75.47;101287.44;6262642;22;20488;-74
2023/04/16 01:32:10;;;;;;;0.00;0.00;;;;;;;8.16;76.00;101267.25;6235533;23;20004;-73
2023/04/16 01:34:36;;;;;;;0.00;0.00;;;;;;;8.27;76.27;101284.69;6239683;23;20014;-75
2023/04/16 01:37:02;;;;;;;0.00;0.00;;;;;;;8.28;75.77;101290.97;6211307;23;20032;-75
2023/04/16 01:39:28;;;;;;;0.00;0.00;;;;;;;8.26;75.85;101287.66;6231986;23;20008;-76
2023/04/16 01:41:53;;;;;;;0.00;0.00;;;;;;;8.21;76.32;101286.44;6234639;23;20019;-74
2023/04/16 01:44:18;;;;;;;0.00;0.00;;;;;;;8.28;76.43;101290.97;6232993;23;20004;-75
2023/04/16 01:46:44;;;;;;;0.00;0.00;;;;;;;8.30;76.03;101294.31;6236339;23;20035;-75
2023/04/16 01:49:09;;;;;;;0.00;0.00;;;;;;;8.27;76.33;101278.44;6233745;23;20039;-79
2023/04/16 01:51:35;;;;;;;0.00;0.00;;;;;;;8.17;76.38;101268.88;6239137;23;20008;-79
2023/04/16 01:54:00;;;;;;;0.00;0.00;;;;;;;8.20;76.33;101262.97;6237694;23;20008;-78
2023/04/16 01:56:28;;;;;;;0.00;0.00;;;;;;;8.34;76.25;101281.91;6261138;22;20091;-78
2023/04/16 01:58:54;;;;;;;0.00;0.00;;;;;;;8.38;75.90;101292.09;6209895;23;20004;-81
2023/04/16 02:01:19;;;;;;;0.00;0.00;;;;;;;8.34;76.46;101284.63;6234894;23;20601;-78
2023/04/16 02:03:45;;;;;;;0.00;0.00;;;;;;;8.19;76.54;101266.78;6239319;23;20031;-78
2023/04/16 02:06:13;;;;;;;0.00;0.00;;;;;;;8.24;76.87;101284.34;6233693;23;20035;-79
2023/04/16 02:08:40;;;;;;;0.00;0.00;;;;;;;8.16;76.55;101266.41;6239340;23;20004;-79
2023/04/16 02:11:11;;;;;;;0.00;0.00;;;;;;;8.10;76.57;101257.25;6237754;23;20089;-79
2023/04/16 02:13:37;;;;;;;0.00;0.00;;;;;;;8.09;77.26;101263.78;6233645;23;20014;-80
2023/04/16 02:16:02;;;;;;;0.00;0.00;;;;;;;7.95;77.33;101243.19;6238460;23;20019;-80
2023/04/16 02:18:28;;;;;;;0.00;0.00;;;;;;;7.95;77.10;101254.09;6235173;23;20431;-78
2023/04/16 02:20:53;;;;;;;0.00;0.00;;;;;;;8.07;77.21;101276.78;6239176;23;20008;-78
2023/04/16 02:23:19;;;;;;;0.00;0.00;;;;;;;7.93;77.27;101261.66;6238286;23;20012;-80
2023/04/16 02:25:46;;;;;;;0.00;0.00;;;;;;;7.94;77.76;101264.13;6206368;23;20011;-79
2023/04/16 02:28:17;;;;;;;0.00;0.00;;;;;;;7.93;77.35;101272.53;6239154;23;20008;-80
2023/04/16 02:30:50;;;;;;;0.00;0.00;;;;;;;7.76;77.70;101240.47;6231336;23;20103;-78
2023/04/16 02:33:15;;;;;;;0.00;0.00;;;;;;;7.95;78.02;101275.88;6239165;23;20008;-80
2023/04/16 02:35:41;;;;;;;0.00;0.00;;;;;;;7.86;77.41;101261.75;6206843;23;20498;-78
2023/04/16 02:38:07;;;;;;;0.00;0.00;;;;;;;7.90;77.63;101262.09;6238567;23;20011;-79
2023/04/16 02:40:35;;;;;;;0.00;0.00;;;;;;;7.90;77.81;101256.66;6236108;23;20695;-78
2023/04/16 02:43:01;;;;;;;0.00;0.00;;;;;;;7.93;77.17;101251.59;6263876;22;20000;-80
2023/04/16 02:45:26;;;;;;;0.00;0.00;;;;;;;8.05;77.24;101265.28;6239718;23;20008;-79
2023/04/16 02:47:52;;;;;;;0.00;0.00;;;;;;;8.14;77.94;101268.53;6209846;23;20446;-80
2023/04/16 02:50:17;;;;;;;0.00;0.00;;;;;;;8.10;77.46;101257.25;6238562;23;20004;-79
2023/04/16 02:52:43;;;;;;;0.00;0.00;;;;;;;8.10;77.39;101262.69;6209021;23;20028;-80
2023/04/16 02:55:09;;;;;;;0.00;0.00;;;;;;;8.14;77.01;101261.19;6263424;22;20004;-78
2023/04/16 02:57:35;;;;;;;0.00;0.00;;;;;;;8.14;77.41;101254.91;6235209;23;20019;-78
2023/04/16 03:00:00;;;;;;;0.00;0.00;;;;;;;8.24;77.17;101271.53;6237232;23;20339;-79
2023/04/16 03:02:28;;;;;;;0.00;0.00;;;;;;;8.25;77.51;101266.91;6263352;22;20506;-78
2023/04/16 03:04:59;;;;;;;0.00;0.00;;;;;;;8.22;77.67;101265.50;6234544;22;20019;-79
2023/04/16 03:07:24;;;;;;;0.00;0.00;;;;;;;8.26;77.83;101265.84;6264549;22;20007;-78
2023/04/16 03:09:50;;;;;;;0.00;0.00;;;;;;;8.21;77.60;101263.81;6211192;23;20008;-80
2023/04/16 03:12:15;;;;;;;0.00;0.00;;;;;;;8.28;77.69;101274.63;6260087;22;20008;-79
2023/04/16 03:14:41;;;;;;;0.00;0.00;;;;;;;8.23;77.65;101266.31;6213282;23;20066;-80
2023/04/16 03:17:06;;;;;;;0.00;0.00;;;;;;;8.18;77.33;101259.66;6208070;23;20085;-78
2023/04/16 03:19:32;;;;;;;0.00;0.00;;;;;;;8.20;78.13;101265.69;6213952;23;20382;-79
2023/04/16 03:21:57;;;;;;;0.00;0.00;;;;;;;8.10;77.60;101251.78;6208983;23;20193;-79
2023/04/16 03:24:23;;;;;;;0.00;0.00;;;;;;;8.12;78.04;101260.59;6237221;23;20413;-79
2023/04/16 03:26:48;;;;;;;0.00;0.00;;;;;;;8.06;78.33;101260.66;6238898;23;20053;-79
2023/04/16 03:29:14;;;;;;;0.00;0.00;;;;;;;8.07;78.34;101267.78;6235601;23;20018;-80
2023/04/16 03:31:40;;;;;;;0.00;0.00;;;;;;;8.08;78.64;101262.09;6237259;22;20315;-79
2023/04/16 03:34:05;;;;;;;0.00;0.00;;;;;;;7.99;78.43;101247.13;6234713;23;20008;-78
2023/04/16 03:36:31;;;;;;;0.00;0.00;;;;;;;8.02;78.77;101252.13;6238753;23;20316;-78
2023/04/16 03:38:57;;;;;;;0.00;0.00;;;;;;;8.07;78.55;101267.78;6208907;23;20031;-78
2023/04/16 03:41:22;;;;;;;0.00;0.00;;;;;;;7.99;78.69;101255.31;6236155;23;20015;-80
2023/04/16 03:43:50;;;;;;;0.00;0.00;;;;;;;8.09;78.81;101271.94;6239879;23;20008;-79
2023/04/16 03:46:17;;;;;;;0.00;0.00;;;;;;;8.10;79.05;101273.59;6260467;22;20007;-79
2023/04/16 03:48:43;;;;;;;0.00;0.00;;;;;;;8.03;78.74;101253.75;6237969;23;20008;-78
2023/04/16 03:51:08;;;;;;;0.00;0.00;;;;;;;7.97;78.58;101246.50;6233726;23;20015;-75
2023/04/16 03:53:34;;;;;;;0.00;0.00;;;;;;;8.04;78.84;101252.72;6214239;23;20485;-76
2023/04/16 03:55:59;;;;;;;0.00;0.00;;;;;;;8.04;79.16;101247.25;6209974;23;20013;-76
2023/04/16 03:58:24;;;;;;;0.00;0.00;;;;;;;8.06;79.29;101260.66;6241017;23;20022;-77
2023/04/16 04:00:55;;;;;;;0.00;0.00;;;;;;;7.95;79.20;101246.75;6238586;23;20012;-76
2023/04/16 04:03:24;;;;;;;0.00;0.00;;;;;;;7.96;79.35;101250.31;6237376;23;20063;-76
2023/04/16 04:05:50;;;;;;;0.00;0.00;;;;;;;7.95;79.52;101243.19;6238666;22;20094;-77
2023/04/16 04:08:16;;;;;;;0.00;0.00;;;;;;;7.90;79.49;101234.88;6238817;23;20101;-75
2023/04/16 04:10:41;;;;;;;0.00;0.00;;;;;;;8.03;79.83;101256.50;6236814;22;20011;-77
2023/04/16 04:13:06;;;;;;;0.00;0.00;;;;;;;8.07;79.96;101268.59;6237670;23;20012;-77
2023/04/16 04:15:32;;;;;;;0.00;0.00;;;;;;;7.99;80.08;101260.75;6233904;23;20012;-76
2023/04/16 04:17:58;;;;;;;0.00;0.00;;;;;;;8.03;80.33;101260.06;6213179;23;20012;-76
2023/04/16 04:20:24;;;;;;;0.00;0.00;;;;;;;8.00;79.61;101252.34;6237955;23;20008;-77
2023/04/16 04:22:57;;;;;;;0.00;0.00;;;;;;;8.07;80.12;101262.31;6260451;22;20320;-75
2023/04/16 04:25:25;;;;;;;0.00;0.00;;;;;;;8.05;79.67;101262.56;6264658;22;20004;-77
2023/04/16 04:27:50;;;;;;;0.00;0.00;;;;;;;8.10;80.44;101268.13;6234618;23;20004;-78
2023/04/16 04:30:21;;;;;;;0.00;0.00;;;;;;;7.94;80.46;101242.34;6239787;23;20019;-78
2023/04/16 04:32:47;;;;;;;0.00;0.00;;;;;;;8.03;80.27;101261.94;6235535;23;20711;-78
2023/04/16 04:35:12;;;;;;;0.00;0.00;;;;;;;8.04;80.09;101258.16;6240100;23;20012;-79
2023/04/16 04:37:38;;;;;;;0.10;0.10;;;;;;;7.88;80.14;101237.00;6236185;23;20008;-79
2023/04/16 04:40:04;;;;;;;0.00;0.00;;;;;;;7.93;80.51;101245.31;6240203;23;20008;-77
2023/04/16 04:42:29;;;;;;;0.00;0.00;;;;;;;7.95;80.54;101249.47;6240263;23;20015;-78
2023/04/16 04:44:54;;;;;;;0.00;0.00;;;;;;;7.94;80.62;101252.41;6236357;23;20087;-77
2023/04/16 04:47:20;;;;;;;0.00;0.00;;;;;;;7.89;80.56;101255.00;6237935;23;20035;-76
2023/04/16 04:49:45;;;;;;;0.00;0.00;;;;;;;7.91;80.81;101259.16;6236074;23;20082;-77
2023/04/16 04:52:11;;;;;;;0.00;0.00;;;;;;;7.92;80.48;101265.44;6264568;22;20004;-78
2023/04/16 04:54:40;;;;;;;0.00;0.00;;;;;;;7.86;80.86;101261.75;6235878;23;20008;-77
2023/04/16 04:57:08;;;;;;;0.00;0.00;;;;;;;7.87;80.95;101268.88;6215376;23;20016;-77
2023/04/16 04:59:36;;;;;;;0.00;0.00;;;;;;;7.90;80.65;101267.56;6241168;22;20008;-77
2023/04/16 05:02:02;;;;;;;0.00;0.00;;;;;;;7.80;81.08;101252.59;6237209;22;20007;-79
2023/04/16 05:04:37;;;;;;;0.00;0.00;;;;;;;7.77;80.43;101244.88;6215258;22;20012;-77
2023/04/16 05:07:06;;;;;;;0.00;0.00;;;;;;;7.77;80.17;101247.59;6235459;23;20008;-78
2023/04/16 05:09:31;;;;;;;0.00;0.00;;;;;;;7.91;81.19;101263.78;6239224;23;20698;-78
2023/04/16 05:11:57;;;;;;;0.00;0.00;;;;;;;7.82;80.91;101266.78;6236546;22;20010;-76
2023/04/16 05:14:22;;;;;;;0.00;0.00;;;;;;;7.83;81.03;101268.47;6265299;22;20335;-78
2023/04/16 05:16:48;;;;;;;0.00;0.00;;;;;;;7.89;81.36;101274.91;6261509;22;20005;-77
2023/04/16 05:19:15;;;;;;;0.00;0.00;;;;;;;7.91;81.08;101283.66;6213602;23;20015;-75
2023/04/16 05:21:46;;;;;;;0.00;0.00;;;;;;;7.80;81.42;101266.19;6264820;22;20004;-77
2023/04/16 05:24:11;;;;;;;0.00;0.00;;;;;;;7.82;81.36;101274.97;6237415;22;20787;-77
2023/04/16 05:26:36;;;;;;;0.00;0.00;;;;;;;7.85;81.43;101271.78;6264675;22;20075;-77
2023/04/16 05:29:02;;;;;;;0.00;0.00;;;;;;;7.90;81.20;101275.72;6235127;23;20347;-78
2023/04/16 05:31:29;;;;;;;0.00;0.00;;;;;;;7.89;81.32;101260.47;6266533;22;20476;-76
2023/04/16 05:33:55;;;;;;;0.00;0.00;;;;;;;7.91;81.22;101258.31;6236777;23;20095;-76
2023/04/16 05:36:20;;;;;;;0.00;0.00;;;;;;;7.93;81.23;101257.06;6239829;23;20088;-77
2023/04/16 05:38:46;;;;;;;0.00;0.00;;;;;;;8.04;81.35;101266.34;6237208;23;20063;-78
2023/04/16 05:41:11;;;;;;;0.00;0.00;;;;;;;8.11;81.11;101269.81;6208340;23;20004;-78
2023/04/16 05:43:36;;;;;;;0.00;0.00;;;;;;;8.15;81.11;101271.03;6262751;22;20008;-77
2023/04/16 05:46:02;;;;;;;0.00;0.00;;;;;;;8.21;80.58;101275.53;6258252;22;20011;-77
2023/04/16 05:48:28;;;;;;;0.00;0.00;;;;;;;8.20;80.34;101273.88;6213453;23;20027;-75
2023/04/16 05:50:53;;;;;;;0.00;0.00;;;;;;;8.31;80.26;101275.00;6233629;23;20000;-76
2023/04/16 05:53:18;;;;;;;0.00;0.00;;;;;;;8.39;80.27;101291.03;6262427;22;20016;-76
2023/04/16 05:55:45;;;;;;;0.00;0.00;;;;;;;8.37;80.19;101284.16;6263273;22;20438;-76
2023/04/16 05:58:10;;;;;;;0.00;0.00;;;;;;;8.31;80.03;101269.56;6208818;23;20007;-76
2023/04/16 06:00:36;;;;;;;0.00;0.00;;;;;;;8.35;79.74;101291.72;6213690;23;20019;-76
2023/04/16 06:03:04;;;;;;;0.00;0.00;;;;;;;8.23;80.16;101269.03;6235407;23;20899;-75
2023/04/16 06:05:32;;;;;;;0.00;0.00;;;;;;;8.29;80.38;101271.66;6243020;23;20016;-75
2023/04/16 06:08:00;;;;;;;0.00;0.00;;;;;;;8.31;79.78;101257.81;6243582;23;20061;-75
2023/04/16 06:10:28;;;;;;;0.00;0.00;;;;;;;8.39;79.48;101265.69;6263972;22;20415;-75
2023/04/16 06:13:01;;;;;;;0.00;0.00;;;;;;;8.43;79.30;101269.59;6245631;23;20010;-75
2023/04/16 06:15:29;;;;;;;0.00;0.00;;;;;;;8.43;79.10;101269.59;6240020;23;20623;-76
2023/04/16 06:17:55;;;;;;;0.00;0.00;;;;;;;8.49;78.74;101271.44;6242612;23;20023;-74
2023/04/16 06:20:20;;;;;;;0.00;0.00;;;;;;;8.57;78.65;101278.44;6242618;22;19992;-76
2023/04/16 06:23:45;;;;;;;;;;;;;;;;;;;;;
2023/04/16 06:26:20;;;;;;;0.00;0.00;;;;;;;8.74;78.18;101295.00;6158189;22;20129;-78
2023/04/16 06:28:56;;;;;;;;;;;;;;;;;;;;;
2023/04/16 06:31:26;;;;;;;0.00;0.00;;;;;;;8.69;77.53;101275.78;6245650;22;20457;-77
2023/04/16 06:34:15;;;;;;;;;;;;;;;;;;;;;
2023/04/16 06:39:46;;;;;;;0.00;0.00;;;;;;;9.01;77.31;101305.47;6225950;22;20008;-78
2023/04/16 06:42:17;;;;;;;0.00;0.00;;;;;;;9.03;77.27;101292.47;6247317;23;20083;-77
2023/04/16 06:44:55;;;;;;;;;;;;;;;;;;;;;
2023/04/16 06:48:09;;;;;;;;;;;;;;;;;;;;;
2023/04/16 06:51:16;;;;;;;;;;;;;;;;;;;;;
2023/04/16 06:53:44;;;;;;;0.00;0.00;;;;;;;9.40;76.11;101325.00;6246813;22;20043;-76
2023/04/16 06:56:15;;;;;;;0.00;0.00;;;;;;;9.30;76.41;101302.94;6267158;22;20016;-79
2023/04/16 06:59:10;;;;;;;0.00;0.00;;;;;;;9.49;76.23;101329.06;6247130;23;20016;-77
2023/04/16 07:01:36;;;;;;;0.00;0.00;;;;;;;9.43;75.89;101302.69;6240604;23;20007;-81
2023/04/16 07:04:04;;;;;;;0.00;0.00;;;;;;;9.54;75.81;101288.22;6246728;23;20012;-79
2023/04/16 07:06:32;;;;;;;0.00;0.00;;;;;;;9.72;75.46;101300.91;6241974;23;20058;-80
2023/04/16 07:12:06;;;;;;;0.00;0.00;;;;;;;9.87;74.88;101275.00;6258177;22;20072;-81
2023/04/16 07:14:42;;;;;;;0.00;0.00;;;;;;;10.11;74.81;101305.84;6270111;22;20004;-82
2023/04/16 07:17:23;;;;;;;0.00;0.00;;;;;;;10.35;73.99;101327.69;6215715;23;20008;-80
2023/04/16 07:20:22;;;;;;;;;;;;;;;;;;;;;
2023/04/16 07:22:46;;;;;;;0.00;0.00;;;;;;;10.41;73.94;101292.00;6241791;22;20004;-81
2023/04/16 07:25:32;;;;;;;;;;;;;;;;;;;;;
2023/04/16 07:28:05;;;;;;;0.00;0.00;;;;;;;10.67;73.81;101316.25;6244436;23;20391;-80
2023/04/16 07:30:43;;;;;;;0.00;0.00;;;;;;;10.74;73.57;101333.34;6239799;23;20676;-79
2023/04/16 07:33:29;;;;;;;0.00;0.00;;;;;;;10.64;72.88;101299.28;6245563;23;20008;-81
2023/04/16 07:36:28;;;;;;;;;;;;;;;;;;;;;
2023/04/16 07:41:57;;;;;;;0.00;0.00;;;;;;;11.73;71.37;101339.41;6247553;23;20509;-78
2023/04/16 07:44:35;;;;;;;0.00;0.00;;;;;;;11.84;71.11;101344.78;6218616;22;20012;-79
2023/04/16 07:47:01;;;;;;;0.00;0.00;;;;;;;11.98;70.29;101337.03;6237828;23;20007;-79
2023/04/16 07:49:26;;;;;;;0.00;0.00;;;;;;;11.83;69.61;101317.63;6232676;23;20000;-77
2023/04/16 07:52:15;;;;;;;0.00;0.00;;;;;;;11.96;69.05;101339.22;6236279;23;20016;-80
2023/04/16 07:54:50;;;;;;;;;;;;;;;;;;;;;
2023/04/16 07:57:16;;;;;;;0.00;0.00;;;;;;;12.03;68.66;101337.13;6260566;22;20075;-79
2023/04/16 07:59:42;;;;;;;0.00;0.00;;;;;;;12.09;69.31;101339.91;6209920;23;20012;-81
2023/04/16 08:02:12;;;;;;;0.00;0.00;;;;;;;12.18;68.69;101330.19;6240221;23;20034;-79
2023/04/16 08:04:37;;;;;;;0.00;0.00;;;;;;;12.45;68.18;101343.94;6245694;22;20426;-87
2023/04/16 08:07:03;;;;;;;0.00;0.00;;;;;;;12.53;67.96;101332.50;6239116;23;20272;-79
2023/04/16 08:09:28;;;;;;;0.00;0.00;;;;;;;12.82;67.14;101350.66;6243838;23;20304;-77
2023/04/16 08:11:53;;;;;;;0.00;0.00;;;;;;;12.83;67.22;101352.31;6235663;23;20065;-77
2023/04/16 08:14:19;;;;;;;0.00;0.00;;;;;;;12.99;66.76;101356.03;6213286;23;20015;-79
2023/04/16 08:16:44;;;;;;;0.00;0.00;;;;;;;13.03;66.28;101357.19;6241364;23;20087;-85
2023/04/16 08:19:12;;;;;;;0.00;0.00;;;;;;;12.95;66.48;101355.72;6237388;23;20008;-81
2023/04/16 08:21:47;;;;;;;0.00;0.00;;;;;;;12.93;66.36;101341.44;6240059;23;20066;-80
2023/04/16 08:24:13;;;;;;;0.00;0.00;;;;;;;12.96;65.90;101340.09;6239292;23;20004;-80
2023/04/16 08:26:38;;;;;;;0.00;0.00;;;;;;;13.02;66.17;101339.88;6239331;23;19992;-80
2023/04/16 08:29:04;;;;;;;0.00;0.00;;;;;;;13.14;66.00;101347.13;6237298;23;20012;-80
2023/04/16 08:31:32;;;;;;;0.00;0.00;;;;;;;13.35;65.62;101348.16;6241829;22;20004;-80
2023/04/16 08:33:59;;;;;;;0.00;0.00;;;;;;;13.72;65.67;101364.66;6237408;23;20004;-80
2023/04/16 08:36:24;;;;;;;0.00;0.00;;;;;;;13.90;64.93;101326.81;6244021;23;20019;-81
2023/04/16 08:38:51;;;;;;;0.00;0.00;;;;;;;14.08;63.84;101325.56;6236453;23;20012;-81
2023/04/16 08:41:17;;;;;;;0.00;0.00;;;;;;;14.19;63.01;101312.66;6243603;22;20004;-82
2023/04/16 08:43:54;;;;;;;;;;;;;;;;;;;;;
2023/04/16 08:46:23;;;;;;;0.00;0.00;;;;;;;14.35;61.84;101314.38;6242500;23;20323;-81
2023/04/16 08:48:59;;;;;;;0.00;0.00;;;;;;;14.82;61.29;101349.22;6238499;23;20008;-82
2023/04/16 08:51:34;;;;;;;0.00;0.00;;;;;;;14.74;61.46;101326.91;6247420;23;20000;-79
2023/04/16 08:54:06;;;;;;;0.00;0.00;;;;;;;15.00;61.20;101347.06;6248472;22;20004;-79
2023/04/16 08:56:36;;;;;;;0.00;0.00;;;;;;;15.08;60.79;101368.53;6251168;23;20000;-79
2023/04/16 08:59:04;;;;;;;0.00;0.00;;;;;;;14.79;61.24;101343.44;6275034;22;20012;-77
2023/04/16 09:01:32;;;;;;;0.00;0.00;;;;;;;14.71;61.06;101347.53;6230840;23;20022;-80
2023/04/16 09:26:07;;;;;;;0.00;0.00;;;;;;;14.96;58.57;101399.09;6306843;22;20066;-82
2023/04/16 09:28:55;;;;;;;0.00;0.00;;;;;;;14.80;59.16;101395.47;6279639;22;20098;-77
2023/04/16 09:31:43;;;;;;;0.00;0.00;;;;;;;14.22;59.26;101358.88;6305026;22;20009;-80
2023/04/16 09:42:01;;;;;;;0.00;0.00;;;;;;;13.87;62.00;101407.09;6177117;23;20020;-80
2023/04/16 09:45:13;;;;;;;;;;;;;;;;;;;;;
2023/04/16 09:48:35;;;;;;;;;;;;;;;;;;;;;
2023/04/16 09:54:51;;;;;;;;;;;;;;;;;;;;;
2023/04/16 09:57:36;;;;;;;;;;;;;;;;;;;;;
2023/04/16 10:00:38;;;;;;;;;;;;;;;;;;;;;
2023/04/16 10:03:12;;;;;;;0.00;0.00;;;;;;;14.33;60.41;101412.88;6283728;22;20090;-78
2023/04/16 10:42:10;;;;;;;;;;;;;;;;;;;;;
2023/04/16 10:55:40;;;;;;;0.00;0.00;;;;;;;16.62;50.94;101394.25;5842398;24;20014;-80
2023/04/16 10:58:30;;;;;;;0.00;0.00;;;;;;;16.93;50.27;101425.34;5898862;24;20095;-77
2023/04/16 11:09:12;;;;;;;0.00;0.00;;;;;;;16.47;50.57;101429.13;6060172;23;20121;-79
2023/04/16 11:12:27;;;;;;;0.00;0.00;;;;;;;16.77;50.15;101430.09;6061272;23;20375;-80
2023/04/16 11:50:37;;;;;;;0.00;0.00;;;;;;;18.63;47.35;101433.00;5921807;24;20062;-77
2023/04/16 12:00:28;;;;;;;;;;;;;;;;;;;;;
2023/04/16 12:03:49;;;;;;;;;;;;;;;;;;;;;
2023/04/16 12:06:18;;;;;;;0.00;0.00;;;;;;;18.52;41.93;101439.78;6112103;23;20089;-76
2023/04/16 12:09:34;;;;;;;0.00;0.00;;;;;;;18.95;41.99;101414.88;6131751;23;20021;-77
2023/04/16 12:12:29;;;;;;;0.00;0.00;;;;;;;19.89;39.13;101415.09;6147328;23;20006;-77
2023/04/16 12:15:34;;;;;;;;;;;;;;;;;;;;;
2023/04/16 12:18:09;;;;;;;0.00;0.00;;;;;;;20.07;40.16;101393.13;6142740;23;20088;-78
2023/04/16 12:21:08;;;;;;;;;;;;;;;;;;;;;
2023/04/16 12:23:43;;;;;;;0.00;0.00;;;;;;;21.97;36.43;101403.50;6206082;22;20086;-77
2023/04/16 12:26:17;;;;;;;0.00;0.00;;;;;;;22.22;36.89;101420.66;6272427;22;20007;-77
2023/04/16 12:29:06;;;;;;;0.00;0.00;;;;;;;21.39;36.85;101405.28;6275629;22;20003;-77
2023/04/16 12:31:50;;;;;;;;;;;;;;;;;;;;;
2023/04/16 12:35:19;;;;;;;0.00;0.00;;;;;;;19.71;39.52;101387.06;6302021;22;20078;-77
2023/04/16 12:37:26;;;;;;;0.00;0.00;;;;;;;19.23;40.30;101387.31;6285211;22;20011;-79
2023/04/16 12:39:56;;;;;;;0.00;0.00;;;;;;;19.02;40.76;101403.41;6297392;22;20021;-77
2023/04/16 12:42:24;;;;;;;0.00;0.00;;;;;;;19.52;40.96;101422.31;6274606;22;20060;-77
2023/04/16 12:45:00;;;;;;;0.00;0.00;;;;;;;19.51;41.15;101413.19;6300531;22;20014;-78
2023/04/16 12:47:49;;;;;;;0.00;0.00;;;;;;;19.25;40.91;101403.66;6250838;22;20007;-80
2023/04/16 12:50:27;;;;;;;;;;;;;;;;;;;;;
2023/04/16 12:53:12;;;;;;;0.00;0.00;;;;;;;18.77;42.52;101418.44;6300469;22;20398;-78
2023/04/16 12:55:40;;;;;;;0.00;0.00;;;;;;;18.92;42.57;101401.59;6271533;22;20025;-79
2023/04/16 12:58:08;;;;;;;0.00;0.00;;;;;;;18.93;41.90;101432.94;6275090;22;20540;-79
2023/04/16 13:00:34;;;;;;;0.00;0.00;;;;;;;18.46;42.17;101418.81;6272491;22;20011;-78
2023/04/16 13:03:14;;;;;;;;;;;;;;;;;;;;;
2023/04/16 13:05:51;;;;;;;0.00;0.00;;;;;;;17.80;43.01;101401.78;6301910;22;20078;-77
2023/04/16 13:08:24;;;;;;;0.00;0.00;;;;;;;17.76;43.82;101395.97;6268315;22;20020;-77
2023/04/16 13:11:38;;;;;;;;;;;;;;;;;;;;;
2023/04/16 13:14:13;;;;;;;;;;;;;;;;;;;;;
2023/04/16 13:16:39;;;;;;;0.00;0.00;;;;;;;17.74;44.19;101408.44;6267685;22;20087;-79
2023/04/16 13:19:22;;;;;;;;;;;;;;;;;;;;;
2023/04/16 13:21:58;;;;;;;0.00;0.00;;;;;;;17.33;44.66;101378.38;6266684;22;20082;-80
2023/04/16 13:24:54;;;;;;;;;;;;;;;;;;;;;
2023/04/16 13:27:51;;;;;;;0.00;0.00;;;;;;;17.20;45.80;101421.31;6262939;22;20075;-84
2023/04/16 13:30:32;;;;;;;0.00;0.00;;;;;;;17.12;45.94;101400.63;6230110;22;20008;-81
2023/04/16 13:33:29;;;;;;;0.00;0.00;;;;;;;17.30;45.59;101404.66;6270437;22;20012;-80
2023/04/16 13:36:28;;;;;;;;;;;;;;;;;;;;;
2023/04/16 13:39:04;;;;;;;0.00;0.00;;;;;;;17.35;45.61;101395.53;6289217;22;20087;-80
2023/04/16 13:41:58;;;;;;;0.00;0.00;;;;;;;17.78;45.62;101410.38;6270286;22;20003;-78
2023/04/16 13:44:57;;;;;;;;;;;;;;;;;;;;;
2023/04/16 13:54:49;;;;;;;0.00;0.00;;;;;;;17.61;43.67;101394.19;6250347;22;20012;-80
2023/04/16 14:04:45;;;;;;;0.00;0.00;;;;;;;17.59;43.74;101371.50;6119497;23;20010;-80
2023/04/16 14:07:24;;;;;;;;;;;;;;;;;;;;;
2023/04/16 14:09:50;;;;;;;0.00;0.00;;;;;;;17.34;42.58;101394.69;6089570;23;20109;-81
2023/04/16 14:12:15;;;;;;;0.00;0.00;;;;;;;17.41;42.97;101405.41;6084396;23;20073;-82
2023/04/16 14:14:41;;;;;;;0.00;0.00;;;;;;;17.43;42.17;101395.72;6063161;23;20006;-80
2023/04/16 14:17:06;;;;;;;0.00;0.00;;;;;;;17.35;42.17;101390.81;6159254;23;20016;-82
2023/04/16 14:19:40;;;;;;;0.00;0.00;;;;;;;17.31;40.97;101388.91;6212047;23;20478;-83
2023/04/16 14:22:06;;;;;;;;;;;;;;;17.82;40.69;101415.31;6250097;22;20474;-83
2023/04/16 14:24:34;;;;;;;0.00;0.00;;;;;;;18.02;40.38;101414.28;6243979;22;19914;-82
2023/04/16 14:26:59;;;;;;;0.00;0.00;;;;;;;17.90;40.63;101396.16;6241715;22;20031;-80
2023/04/16 14:37:41;;;;;;;;;;;;;;;;;;;;;
2023/04/16 14:43:48;;;;;;;0.00;0.00;;;;;;;16.78;43.43;101404.13;6113863;23;20002;-80
2023/04/16 14:53:38;;;;;;;0.00;0.00;;;;;;;15.88;41.03;101362.47;6075957;23;20014;-78
2023/04/16 15:06:57;;;;;;;;;;;;;;;;;;;;;
2023/04/16 15:09:37;;;;;;;;;;;;;;;;;;;;;
2023/04/16 15:12:22;;;;;;;0.00;0.00;;;;;;;16.72;41.34;101366.59;6172824;23;20087;-78
2023/04/16 15:15:26;;;;;;;0.00;0.00;;;;;;;16.46;41.11;101330.03;6151835;23;20010;-79
2023/04/16 15:18:53;;;;;;;;;;;;;;;;;;;;;
2023/04/16 15:22:18;;;;;;;;;;;;;;;;;;;;;
2023/04/16 15:29:42;;;;;;;;;;;;;;;;;;;;;
2023/04/16 15:32:56;;;;;;;;;;;;;;;;;;;;;
2023/04/16 15:35:25;;;;;;;0.00;0.00;;;;;;;16.62;41.64;101342.63;6111953;23;20052;-82
2023/04/16 15:38:40;;;;;;;0.00;0.00;;;;;;;16.73;41.78;101343.38;6178012;23;20351;-79
2023/04/16 15:44:22;;;;;;;0.00;0.00;;;;;;;16.52;41.77;101318.66;6159737;23;20090;-77
2023/04/16 15:47:07;;;;;;;0.00;0.00;;;;;;;16.85;41.60;101363.22;6207719;23;20004;-78
2023/04/16 15:50:01;;;;;;;;;;;;;;;;;;;;;
2023/04/16 15:52:37;;;;;;;0.00;0.00;;;;;;;16.23;41.91;101335.06;6204366;23;20083;-77
2023/04/16 15:55:06;;;;;;;0.00;0.00;;;;;;;16.28;42.27;101364.56;6204115;23;20038;-79
2023/04/16 15:57:31;;;;;;;0.00;0.00;;;;;;;15.98;43.20;101347.03;6208498;22;20898;-81
2023/04/16 15:59:56;;;;;;;0.00;0.00;;;;;;;16.02;42.95;101354.47;6214394;22;20034;-79
2023/04/16 16:02:22;;;;;;;0.00;0.00;;;;;;;16.06;43.20;101357.47;6267440;22;20004;-81